Time;durP1;ratioP1;P1;durP2;ratioP2;P2;SDS_P1;SDS_P2;PMS_P1;PMS_P2;Temp;Humidity;BMP_temperature;BMP_pressure;BME280_temperature;BME280_humidity;BME280_pressure;Samples;Min_cycle;Max_cycle;Signal;HPM_P1;HPM_P2
2022/05/03 00:01:44;;;;;;;10.03;2.47;;;22.70;99.90;;;;;;5082795;28;20178;-68
2022/05/03 00:04:25;;;;;;;8.03;2.43;;;23.10;99.90;;;;;;5095058;28;20568;-66
2022/05/03 00:07:11;;;;;;;11.43;2.53;;;23.40;99.90;;;;;;5095149;28;20183;-67
2022/05/03 00:10:00;;;;;;;3.93;1.90;;;23.30;99.90;;;;;;5094440;28;20783;-67
2022/05/03 00:12:53;;;;;;;5.57;1.80;;;23.40;99.90;;;;;;5094964;28;20270;-69
2022/05/03 00:15:22;;;;;;;7.23;1.53;;;23.70;99.90;;;;;;5094393;28;20179;-67
2022/05/03 00:17:56;;;;;;;10.43;1.67;;;23.40;99.90;;;;;;5094973;28;20184;-66
2022/05/03 00:20:24;;;;;;;6.60;1.97;;;23.50;99.90;;;;;;5094968;28;20258;-67
2022/05/03 00:22:56;;;;;;;5.17;1.73;;;23.60;99.90;;;;;;5094032;28;20270;-67
2022/05/03 00:25:23;;;;;;;3.67;1.53;;;23.70;99.90;;;;;;5094510;28;20221;-66
2022/05/03 00:27:53;;;;;;;4.73;1.83;;;23.80;99.90;;;;;;5094496;28;20183;-66
2022/05/03 00:30:22;;;;;;;7.23;1.87;;;24.20;99.90;;;;;;5094457;28;20207;-66
2022/05/03 00:32:50;;;;;;;3.73;1.70;;;23.60;99.90;;;;;;5094328;28;20187;-66
2022/05/03 00:35:21;;;;;;;6.07;1.87;;;23.90;99.90;;;;;;5097499;28;20183;-67
2022/05/03 00:37:50;;;;;;;8.00;2.33;;;24.10;99.90;;;;;;5094494;28;20195;-67
2022/05/03 00:40:21;;;;;;;6.67;2.13;;;23.90;99.90;;;;;;5089429;28;20171;-68
2022/05/03 00:43:01;;;;;;;10.20;2.43;;;24.40;99.90;;;;;;5095132;28;20179;-68
2022/05/03 00:45:55;;;;;;;7.00;2.50;;;24.20;99.90;;;;;;5093930;28;20289;-68
2022/05/03 00:48:50;;;;;;;5.20;2.40;;;24.40;99.90;;;;;;5092050;28;20187;-67
2022/05/03 00:51:23;;;;;;;2.13;1.10;;;25.30;99.90;;;;;;5091991;28;20252;-66
2022/05/03 00:54:12;;;;;;;4.60;1.70;;;26.00;99.90;;;;;;5094013;28;20179;-67
2022/05/03 00:57:09;;;;;;;5.17;1.90;;;25.40;99.90;;;;;;5093889;28;20190;-68
2022/05/03 01:00:06;;;;;;;6.87;2.00;;;25.00;99.90;;;;;;5093564;28;20168;-67
2022/05/03 01:02:57;;;;;;;5.33;1.50;;;25.00;99.90;;;;;;5093184;28;20176;-68
2022/05/03 01:05:40;;;;;;;6.07;1.63;;;24.80;99.90;;;;;;5093388;28;20602;-68
2022/05/03 01:08:12;;;;;;;7.97;2.00;;;25.20;99.90;;;;;;5092514;28;20190;-68
2022/05/03 01:11:03;;;;;;;10.17;2.07;;;25.70;99.90;;;;;;5092962;28;20175;-68
2022/05/03 01:13:57;;;;;;;5.03;1.50;;;25.50;99.90;;;;;;5091784;28;20247;-68
2022/05/03 01:16:30;;;;;;;8.17;1.83;;;25.70;99.90;;;;;;5087554;28;20672;-67
2022/05/03 01:19:34;;;;;;;6.73;1.53;;;25.30;99.90;;;;;;5092643;28;20187;-68
2022/05/03 01:22:09;;;;;;;6.43;1.60;;;25.40;99.90;;;;;;5092481;28;20281;-67
2022/05/03 01:24:49;;;;;;;8.07;1.67;;;25.40;99.90;;;;;;5093005;28;20212;-67
2022/05/03 01:27:46;;;;;;;8.87;2.20;;;25.00;99.90;;;;;;5091465;28;20187;-67
2022/05/03 01:30:16;;;;;;;5.60;1.93;;;24.20;99.90;;;;;;5086236;28;20567;-67
2022/05/03 01:32:45;;;;;;;6.77;1.67;;;24.50;99.90;;;;;;5091659;28;20237;-67
2022/05/03 01:35:21;;;;;;;5.10;1.97;;;24.50;99.90;;;;;;5093155;28;20171;-67
2022/05/03 01:38:11;;;;;;;8.67;1.80;;;25.20;99.90;;;;;;5091871;28;20269;-67
2022/05/03 01:41:06;;;;;;;7.77;1.73;;;24.60;99.90;;;;;;5083129;28;20225;-67
2022/05/03 01:43:55;;;;;;;5.87;1.77;;;25.40;99.90;;;;;;5092608;28;20262;-67
2022/05/03 01:46:31;;;;;;;4.03;1.63;;;26.30;99.90;;;;;;5092087;28;20195;-67
2022/05/03 01:52:16;;;;;;;5.27;1.50;;;26.10;99.90;;;;;;5093009;28;20194;-69
2022/05/03 01:54:55;;;;;;;4.53;1.30;;;26.40;99.90;;;;;;5093435;28;20588;-68
2022/05/03 01:57:36;;;;;;;5.13;1.27;;;26.30;99.90;;;;;;5093600;28;20207;-68
2022/05/03 02:00:10;;;;;;;4.83;1.37;;;26.50;99.90;;;;;;5092641;28;20539;-68
2022/05/03 02:02:56;;;;;;;6.30;1.03;;;26.70;99.90;;;;;;5091745;28;20183;-69
2022/05/03 02:05:39;;;;;;;5.93;1.27;;;26.00;99.90;;;;;;5089769;28;20315;-67
2022/05/03 02:08:17;;;;;;;6.00;1.40;;;25.90;99.90;;;;;;5091239;28;20183;-68
2022/05/03 02:11:38;;;;;;;5.40;1.60;;;26.70;99.90;;;;;;5090518;28;20195;-68
2022/05/03 02:17:32;;;;;;;5.33;1.00;;;26.20;99.90;;;;;;5093090;28;20186;-67
2022/05/03 02:20:29;;;;;;;3.13;1.40;;;26.40;99.90;;;;;;5093133;28;20185;-68
2022/05/03 02:23:17;;;;;;;4.07;0.93;;;26.10;99.90;;;;;;5091909;28;20175;-68
2022/05/03 02:26:06;;;;;;;8.23;1.67;;;26.90;99.90;;;;;;5093053;28;20206;-68
2022/05/03 02:28:39;;;;;;;2.17;0.77;;;26.80;99.90;;;;;;5072161;28;20535;-68
2022/05/03 02:31:14;;;;;;;2.17;0.73;;;26.40;99.90;;;;;;5072240;28;20212;-68
2022/05/03 02:33:50;;;;;;;5.30;0.90;;;25.80;99.90;;;;;;5072487;28;20171;-68
2022/05/03 02:36:23;;;;;;;2.87;0.87;;;26.30;99.90;;;;;;5071755;28;20186;-68
2022/05/03 02:39:04;;;;;;;2.07;0.70;;;26.40;99.90;;;;;;5072205;28;20270;-68
2022/05/03 02:41:39;;;;;;;2.67;0.80;;;27.70;99.90;;;;;;5072433;28;20661;-69
2022/05/03 02:44:07;;;;;;;4.50;1.00;;;27.40;99.90;;;;;;5072166;28;20187;-68
2022/05/03 02:46:35;;;;;;;4.67;1.30;;;27.50;99.90;;;;;;5071653;28;20710;-68
2022/05/03 02:49:24;;;;;;;1.37;0.50;;;27.80;99.90;;;;;;5072465;28;20580;-68
2022/05/03 02:52:26;;;;;;;6.73;1.20;;;27.70;99.90;;;;;;5072585;28;20183;-67
2022/05/03 02:55:15;;;;;;;6.63;1.00;;;27.80;99.90;;;;;;5072353;28;20723;-68
2022/05/03 02:58:04;;;;;;;3.53;0.80;;;27.60;99.90;;;;;;5073706;28;20668;-67
2022/05/03 03:04:03;;;;;;;3.17;0.97;;;27.70;99.90;;;;;;5089631;28;20194;-67
2022/05/03 03:06:41;;;;;;;3.43;0.67;;;27.90;99.90;;;;;;5091800;28;20195;-68
2022/05/03 03:09:10;;;;;;;3.50;0.83;;;27.80;99.90;;;;;;5091330;28;20186;-68
2022/05/03 03:12:04;;;;;;;3.30;0.80;;;27.90;99.90;;;;;;5092149;28;20270;-69
2022/05/03 03:14:39;;;;;;;1.93;0.60;;;27.50;99.90;;;;;;5075768;28;20180;-68
2022/05/03 03:17:20;;;;;;;2.60;0.70;;;27.50;99.90;;;;;;5079383;28;20186;-68
2022/05/03 03:19:54;;;;;;;4.00;0.70;;;27.10;99.90;;;;;;5094288;28;20834;-69
2022/05/03 03:22:23;;;;;;;3.97;1.37;;;26.50;99.90;;;;;;5095384;28;20228;-68
2022/05/03 03:24:59;;;;;;;4.07;1.03;;;26.80;99.90;;;;;;5094934;28;20586;-68
2022/05/03 03:27:29;;;;;;;1.83;0.70;;;26.30;99.90;;;;;;5094908;28;20177;-68
2022/05/03 03:29:59;;;;;;;1.13;0.60;;;26.70;99.90;;;;;;5093504;28;20287;-69
2022/05/03 03:32:27;;;;;;;3.60;0.90;;;27.00;99.90;;;;;;5094929;28;20270;-68
2022/05/03 03:34:57;;;;;;;2.63;1.10;;;27.70;99.90;;;;;;5094528;28;20171;-68
2022/05/03 03:37:33;;;;;;;2.97;0.90;;;27.50;99.90;;;;;;5088956;28;20664;-68
2022/05/03 03:40:01;;;;;;;3.23;0.73;;;27.30;99.90;;;;;;5094938;28;20605;-68
2022/05/03 03:42:30;;;;;;;4.57;0.70;;;27.30;99.90;;;;;;5094705;28;20672;-68
2022/05/03 03:45:07;;;;;;;3.57;1.13;;;27.20;99.90;;;;;;5094690;28;20225;-68
2022/05/03 03:47:37;;;;;;;3.60;0.80;;;27.00;99.90;;;;;;5093247;28;20183;-68
2022/05/03 03:50:06;;;;;;;3.13;0.80;;;26.80;99.90;;;;;;5094338;28;20551;-69
2022/05/03 03:52:35;;;;;;;2.37;0.83;;;27.10;99.90;;;;;;5094589;28;20274;-68
2022/05/03 03:55:07;;;;;;;4.57;1.00;;;27.40;99.90;;;;;;5094193;28;20857;-68
2022/05/03 03:57:45;;;;;;;4.67;0.90;;;26.80;99.90;;;;;;5094022;28;20179;-68
2022/05/03 04:00:16;;;;;;;2.13;0.80;;;26.60;99.90;;;;;;5093987;28;20179;-68
2022/05/03 04:02:46;;;;;;;4.03;0.87;;;27.00;99.90;;;;;;5091423;28;20232;-69
2022/05/03 04:05:19;;;;;;;3.47;0.80;;;27.50;99.90;;;;;;5094019;28;20214;-68
2022/05/03 04:07:51;;;;;;;4.13;1.00;;;26.50;99.90;;;;;;5094407;28;20274;-69
2022/05/03 04:10:20;;;;;;;2.83;0.63;;;26.40;99.90;;;;;;5094993;28;20227;-69
2022/05/03 04:12:48;;;;;;;3.67;0.90;;;26.40;99.90;;;;;;5094855;28;20187;-67
2022/05/03 04:15:15;;;;;;;7.47;0.90;;;26.70;99.90;;;;;;5093891;28;20652;-67
2022/05/03 04:17:46;;;;;;;3.40;0.80;;;27.10;99.90;;;;;;5093783;28;20187;-68
2022/05/03 04:20:18;;;;;;;3.70;0.67;;;27.50;99.90;;;;;;5093798;28;20187;-66
2022/05/03 04:22:46;;;;;;;4.87;1.03;;;27.30;99.90;;;;;;5077629;28;20550;-67
2022/05/03 04:25:14;;;;;;;2.37;0.57;;;27.40;99.90;;;;;;5092633;28;20203;-69
2022/05/03 04:27:42;;;;;;;3.93;0.70;;;27.60;99.90;;;;;;5093339;28;20192;-68
2022/05/03 04:30:11;;;;;;;4.43;0.90;;;27.80;99.90;;;;;;5093172;28;20202;-68
2022/05/03 04:32:39;;;;;;;1.27;0.60;;;27.80;99.90;;;;;;5093771;28;20183;-67
2022/05/03 04:35:07;;;;;;;4.07;0.93;;;28.00;99.90;;;;;;5093146;28;20202;-67
2022/05/03 04:37:36;;;;;;;2.77;0.70;;;27.10;99.90;;;;;;5093896;28;20262;-68
2022/05/03 04:40:04;;;;;;;1.50;0.63;;;26.50;99.90;;;;;;5093612;28;20269;-68
2022/05/03 04:42:32;;;;;;;3.37;0.70;;;26.70;99.90;;;;;;5093365;28;20202;-68
2022/05/03 04:45:00;;;;;;;1.70;0.63;;;26.80;99.90;;;;;;5092386;28;20222;-68
2022/05/03 04:47:30;;;;;;;2.60;0.90;;;26.90;99.90;;;;;;5093325;28;20233;-68
2022/05/03 04:49:57;;;;;;;1.23;0.67;;;26.50;99.90;;;;;;5093316;28;20183;-68
2022/05/03 04:52:25;;;;;;;3.27;0.63;;;26.50;99.90;;;;;;5092843;28;20892;-67
2022/05/03 04:54:53;;;;;;;8.77;0.80;;;26.40;99.90;;;;;;5090335;28;20230;-68
2022/05/03 04:57:20;;;;;;;1.63;0.60;;;26.70;99.90;;;;;;5092963;28;20183;-68
2022/05/03 04:59:48;;;;;;;3.03;0.90;;;26.90;99.90;;;;;;5093269;28;20181;-69
2022/05/03 05:02:16;;;;;;;2.33;0.90;;;27.00;99.90;;;;;;5093274;28;20656;-68
2022/05/03 05:04:43;;;;;;;5.33;0.83;;;27.10;99.90;;;;;;5093138;28;20636;-68
2022/05/03 05:07:12;;;;;;;4.00;0.70;;;27.20;99.90;;;;;;5092036;28;20221;-68
2022/05/03 05:10:23;;;;;;;2.73;1.20;;;27.30;99.90;;;;;;5092767;28;20189;-68
2022/05/03 05:12:30;;;;;;;6.20;0.93;;;27.10;99.90;;;;;;5092881;28;20262;-68
2022/05/03 05:14:58;;;;;;;2.10;0.60;;;26.70;99.90;;;;;;5075082;28;20249;-67
2022/05/03 05:17:25;;;;;;;3.83;0.93;;;26.80;99.90;;;;;;5092880;28;20183;-68
2022/05/03 05:19:53;;;;;;;3.73;0.90;;;26.60;99.90;;;;;;5092755;28;20187;-68
2022/05/03 05:22:21;;;;;;;6.00;1.13;;;26.90;99.90;;;;;;5091537;28;20671;-69
2022/05/03 05:24:48;;;;;;;3.23;0.60;;;26.90;99.90;;;;;;5090771;28;20549;-67
2022/05/03 05:27:19;;;;;;;1.63;0.70;;;25.60;99.90;;;;;;5092262;28;20183;-67
2022/05/03 05:29:47;;;;;;;3.23;0.93;;;25.10;99.90;;;;;;5091908;28;20218;-67
2022/05/03 05:32:14;;;;;;;4.03;1.00;;;25.00;99.90;;;;;;5092240;28;20224;-67
2022/05/03 05:34:42;;;;;;;1.67;0.60;;;25.50;99.90;;;;;;5092421;28;20179;-68
2022/05/03 05:37:10;;;;;;;2.20;0.60;;;26.00;99.90;;;;;;5091595;28;20199;-68
2022/05/03 05:39:37;;;;;;;3.50;0.60;;;25.70;99.90;;;;;;5092076;28;20232;-68
2022/05/03 05:42:05;;;;;;;1.37;0.63;;;26.00;99.90;;;;;;5092465;28;20181;-67
2022/05/03 05:44:33;;;;;;;1.53;0.97;;;26.00;99.90;;;;;;5092232;28;20669;-67
2022/05/03 05:47:01;;;;;;;6.33;0.60;;;25.60;99.90;;;;;;5092624;28;20637;-68
2022/05/03 05:49:28;;;;;;;5.63;0.80;;;25.40;99.90;;;;;;5091920;28;20645;-68
2022/05/03 05:53:31;;;;;;;1.83;0.70;;;25.50;99.90;;;;;;5092014;28;20380;-67
2022/05/03 05:54:45;;;;;;;2.73;0.70;;;25.20;99.90;;;;;;5091916;28;20300;-68
2022/05/03 05:57:13;;;;;;;2.17;0.60;;;24.90;99.90;;;;;;5092271;28;20170;-67
2022/05/03 05:59:41;;;;;;;4.00;1.30;;;24.60;99.90;;;;;;5092251;28;20179;-68
2022/05/03 06:02:08;;;;;;;3.57;1.00;;;24.20;99.90;;;;;;5091498;28;20190;-67
2022/05/03 06:04:36;;;;;;;3.87;1.07;;;23.80;99.90;;;;;;5092095;28;20211;-68
2022/05/03 06:07:04;;;;;;;3.97;1.10;;;23.50;99.90;;;;;;5092277;28;20262;-67
2022/05/03 06:09:33;;;;;;;3.53;0.93;;;23.20;99.90;;;;;;5092081;28;20214;-67
2022/05/03 06:12:01;;;;;;;3.87;0.80;;;23.00;99.90;;;;;;5092059;28;20188;-67
2022/05/03 06:14:28;;;;;;;3.27;0.70;;;22.80;99.90;;;;;;5091992;28;20169;-68
2022/05/03 06:16:58;;;;;;;3.07;1.00;;;22.70;99.90;;;;;;5092082;28;20179;-68
2022/05/03 06:19:26;;;;;;;2.87;0.73;;;22.70;99.90;;;;;;5090779;28;20191;-68
2022/05/03 06:21:53;;;;;;;5.07;0.70;;;22.60;99.90;;;;;;5092037;28;20193;-67
2022/05/03 06:24:21;;;;;;;5.33;1.00;;;22.50;99.90;;;;;;5091988;28;20186;-68
2022/05/03 06:26:49;;;;;;;3.53;1.00;;;22.50;99.90;;;;;;5091943;28;20207;-68
2022/05/03 06:29:16;;;;;;;4.07;1.33;;;22.40;99.90;;;;;;5091821;28;20707;-66
2022/05/03 06:31:44;;;;;;;4.63;1.27;;;22.40;99.90;;;;;;5092111;28;20179;-67
2022/05/03 06:34:13;;;;;;;1.13;0.67;;;22.40;99.90;;;;;;5090663;28;20179;-67
2022/05/03 06:36:40;;;;;;;4.43;1.10;;;22.30;99.90;;;;;;5092043;28;20731;-67
2022/05/03 06:39:08;;;;;;;4.87;0.90;;;22.50;99.90;;;;;;5091789;28;20171;-67
2022/05/03 06:41:36;;;;;;;5.57;0.77;;;22.60;99.90;;;;;;5091687;28;20179;-68
2022/05/03 06:44:08;;;;;;;6.47;1.27;;;22.50;99.90;;;;;;5090678;28;20232;-67
2022/05/03 06:46:36;;;;;;;4.70;1.03;;;22.30;99.90;;;;;;5078325;28;20198;-67
2022/05/03 06:49:04;;;;;;;4.50;1.10;;;22.10;99.90;;;;;;5095112;28;20258;-67
2022/05/03 06:51:32;;;;;;;3.23;0.80;;;22.00;99.90;;;;;;5095920;28;20206;-68
2022/05/03 06:54:02;;;;;;;2.20;0.80;;;21.90;99.90;;;;;;5095668;28;20188;-68
2022/05/03 06:56:35;;;;;;;6.03;1.37;;;21.70;99.90;;;;;;5095762;28;20191;-68
2022/05/03 06:59:07;;;;;;;2.53;1.40;;;21.70;99.90;;;;;;5094147;28;20189;-65
2022/05/03 07:01:39;;;;;;;8.43;1.80;;;21.50;99.90;;;;;;5075298;28;20187;-68
2022/05/03 07:04:07;;;;;;;1.97;0.90;;;21.50;99.90;;;;;;5078056;28;20175;-68
2022/05/03 07:06:35;;;;;;;5.50;1.40;;;21.40;99.90;;;;;;5095430;28;20197;-68
2022/05/03 07:09:03;;;;;;;5.47;1.40;;;21.30;99.90;;;;;;5095266;28;20178;-67
2022/05/03 07:11:31;;;;;;;5.33;1.03;;;21.20;99.90;;;;;;5095502;28;20171;-68
2022/05/03 07:14:03;;;;;;;2.70;0.90;;;21.10;99.90;;;;;;5095515;28;20189;-67
2022/05/03 07:16:30;;;;;;;6.63;1.43;;;21.10;99.90;;;;;;5095075;28;20191;-68
2022/05/03 07:24:29;;;;;;;9.43;1.53;;;20.90;99.90;;;;;;5095089;28;20626;-69
2022/05/03 07:26:57;;;;;;;4.40;1.33;;;20.80;99.90;;;;;;5077312;28;20260;-68
2022/05/03 07:29:25;;;;;;;5.47;1.60;;;20.70;99.90;;;;;;5095018;28;20239;-66
2022/05/03 07:31:53;;;;;;;4.80;1.30;;;20.60;99.90;;;;;;5094819;28;20187;-67
2022/05/03 07:34:21;;;;;;;9.43;1.30;;;20.60;99.90;;;;;;5093259;28;20274;-69
2022/05/03 07:36:48;;;;;;;5.60;1.73;;;20.50;99.90;;;;;;5095386;28;20178;-70
2022/05/03 07:39:16;;;;;;;8.77;1.73;;;20.40;99.90;;;;;;5095177;28;20231;-69
2022/05/03 07:41:44;;;;;;;7.07;1.50;;;20.30;99.90;;;;;;5095086;28;20183;-71
2022/05/03 07:44:13;;;;;;;7.73;1.30;;;20.20;99.90;;;;;;5094627;28;20171;-68
2022/05/03 07:46:41;;;;;;;7.50;1.70;;;20.10;99.90;;;;;;5094030;28;20198;-67
2022/05/03 07:49:10;;;;;;;6.83;2.07;;;20.00;99.90;;;;;;5095230;28;20181;-69
2022/05/03 07:51:40;;;;;;;8.33;1.83;;;20.00;99.90;;;;;;5094343;28;20185;-69
2022/05/03 07:54:09;;;;;;;13.17;2.80;;;20.00;99.90;;;;;;5094757;28;20652;-70
2022/05/03 07:56:37;;;;;;;8.20;1.77;;;20.00;99.90;;;;;;5093326;28;20202;-72
2022/05/03 07:59:08;;;;;;;6.47;1.60;;;19.90;99.90;;;;;;5093445;28;20641;-68
2022/05/03 08:01:39;;;;;;;7.90;1.57;;;19.80;99.90;;;;;;5094381;28;20179;-68
2022/05/03 08:04:08;;;;;;;6.23;1.40;;;19.80;99.90;;;;;;5093738;28;20228;-69
2022/05/03 08:06:36;;;;;;;4.93;1.30;;;19.70;99.90;;;;;;5094122;28;20230;-67
2022/05/03 08:09:06;;;;;;;5.53;1.47;;;19.70;99.90;;;;;;5093833;28;20244;-69
2022/05/03 08:11:34;;;;;;;11.70;1.80;;;19.60;99.90;;;;;;5093048;28;20722;-68
2022/05/03 08:14:02;;;;;;;4.70;1.43;;;19.50;99.90;;;;;;5094130;28;20185;-69
2022/05/03 08:16:31;;;;;;;3.97;1.40;;;19.50;99.90;;;;;;5094297;28;20232;-69
2022/05/03 08:18:59;;;;;;;6.53;1.80;;;19.40;99.90;;;;;;5091283;28;20541;-68
2022/05/03 08:21:28;;;;;;;7.10;1.80;;;19.30;99.90;;;;;;5094630;28;20179;-68
2022/05/03 08:23:58;;;;;;;6.27;2.00;;;19.30;99.90;;;;;;5092631;28;20183;-69
2022/05/03 08:26:26;;;;;;;4.77;1.63;;;19.30;99.90;;;;;;5093815;28;20220;-68
2022/05/03 08:28:54;;;;;;;10.77;2.07;;;19.30;99.90;;;;;;5093376;28;20175;-68
2022/05/03 08:31:23;;;;;;;9.77;1.70;;;19.20;99.90;;;;;;5093199;28;20211;-68
2022/05/03 08:33:52;;;;;;;6.60;1.63;;;19.10;99.90;;;;;;5093341;28;20183;-69
2022/05/03 08:36:21;;;;;;;7.63;1.50;;;19.00;99.90;;;;;;5089166;28;20209;-68
2022/05/03 08:44:20;;;;;;;5.60;1.63;;;18.70;99.90;;;;;;5092173;28;20185;-69
2022/05/03 08:46:53;;;;;;;6.77;1.80;;;18.60;99.90;;;;;;5090551;28;20195;-68
2022/05/03 08:49:23;;;;;;;3.63;1.50;;;18.50;99.90;;;;;;5093224;28;20179;-68
2022/05/03 08:51:53;;;;;;;4.87;1.80;;;18.40;99.90;;;;;;5092700;28;20191;-68
2022/05/03 08:54:25;;;;;;;3.57;1.47;;;18.30;99.90;;;;;;5092833;28;20276;-68
2022/05/03 08:56:53;;;;;;;7.23;1.60;;;18.20;99.90;;;;;;5093239;28;20266;-69
2022/05/03 08:59:34;;;;;;;5.40;1.53;;;18.10;99.90;;;;;;5094065;28;20186;-70
2022/05/03 09:02:02;;;;;;;7.93;2.20;;;18.00;99.90;;;;;;5076929;28;20194;-68
2022/05/03 09:04:29;;;;;;;4.63;1.73;;;18.00;99.90;;;;;;5091948;28;20180;-68
2022/05/03 09:06:57;;;;;;;6.27;1.43;;;17.90;99.90;;;;;;5093605;28;20633;-69
2022/05/03 09:09:25;;;;;;;4.73;1.67;;;17.80;99.90;;;;;;5092991;28;20175;-68
2022/05/03 09:11:54;;;;;;;6.20;2.10;;;17.70;99.90;;;;;;5092394;28;20210;-68
2022/05/03 09:14:39;;;;;;;7.00;1.80;;;17.70;99.90;;;;;;5092135;28;20183;-68
2022/05/03 09:17:08;;;;;;;7.90;1.90;;;17.60;99.90;;;;;;5081636;28;20636;-66
2022/05/03 09:19:36;;;;;;;5.27;1.90;;;17.50;99.90;;;;;;5093416;28;20815;-67
2022/05/03 09:25:04;;;;;;;8.13;2.17;;;17.50;99.90;;;;;;5072554;28;20223;-68
2022/05/03 09:27:36;;;;;;;7.10;2.07;;;17.40;99.90;;;;;;5081222;28;20221;-66
2022/05/03 09:30:12;;;;;;;6.83;1.83;;;17.40;99.90;;;;;;5094774;28;20220;-67
2022/05/03 09:32:45;;;;;;;6.07;2.00;;;17.30;99.90;;;;;;5093696;28;20193;-69
2022/05/03 09:35:35;;;;;;;4.23;1.60;;;17.20;99.90;;;;;;5095065;28;20692;-69
2022/05/03 09:38:04;;;;;;;4.67;1.80;;;17.20;99.90;;;;;;5095114;28;20168;-69
2022/05/03 09:40:43;;;;;;;9.63;2.70;;;17.10;99.90;;;;;;5094524;28;20187;-69
2022/05/03 09:43:12;;;;;;;6.00;2.30;;;17.00;99.90;;;;;;5078685;28;20540;-68
2022/05/03 09:45:47;;;;;;;7.40;2.00;;;17.10;99.90;;;;;;5092193;28;20254;-68
2022/05/03 09:48:15;;;;;;;9.37;2.60;;;17.00;99.90;;;;;;5094858;28;20174;-70
2022/05/03 09:50:45;;;;;;;9.60;2.40;;;17.10;99.90;;;;;;5094765;28;20207;-69
2022/05/03 09:53:21;;;;;;;8.40;2.80;;;17.00;99.90;;;;;;5093145;28;20547;-69
2022/05/03 09:55:53;;;;;;;6.00;1.83;;;17.10;99.90;;;;;;5093669;28;20222;-70
2022/05/03 09:58:25;;;;;;;5.80;2.13;;;17.10;99.90;;;;;;5094136;28;20190;-69
2022/05/03 10:00:53;;;;;;;7.87;2.00;;;17.10;99.90;;;;;;5093804;28;20171;-68
2022/05/03 10:03:25;;;;;;;7.07;2.27;;;17.10;99.90;;;;;;5093158;28;20171;-69
2022/05/03 10:05:55;;;;;;;8.27;2.23;;;17.10;99.90;;;;;;5094254;28;20222;-68
2022/05/03 10:08:28;;;;;;;5.83;2.63;;;17.30;99.90;;;;;;5093362;28;20640;-68
2022/05/03 10:10:56;;;;;;;9.67;2.40;;;17.20;99.90;;;;;;5093574;28;20183;-68
2022/05/03 10:13:24;;;;;;;5.50;2.33;;;17.20;99.90;;;;;;5093316;28;20531;-68
2022/05/03 10:21:35;;;;;;;7.37;2.57;;;16.90;99.90;;;;;;5090899;28;20725;-68
2022/05/03 10:24:06;;;;;;;5.73;3.13;;;16.80;99.90;;;;;;5096989;28;20203;-69
2022/05/03 10:26:58;;;;;;;7.57;2.70;;;16.80;99.90;;;;;;5097453;28;20214;-67
2022/05/03 10:29:32;;;;;;;7.63;2.83;;;16.80;99.90;;;;;;5097657;28;20182;-69
2022/05/03 10:32:08;;;;;;;3.83;2.07;;;16.70;99.90;;;;;;5096235;28;20175;-69
2022/05/03 10:34:59;;;;;;;8.60;2.80;;;16.60;99.90;;;;;;5095780;28;20183;-69
2022/05/03 10:37:33;;;;;;;7.87;2.57;;;16.50;99.90;;;;;;5097162;28;20624;-68
2022/05/03 10:40:13;;;;;;;7.20;3.03;;;16.40;99.90;;;;;;5097887;28;20180;-68
2022/05/03 10:42:44;;;;;;;6.60;2.60;;;16.40;99.90;;;;;;5097211;28;20258;-68
2022/05/03 10:45:14;;;;;;;6.70;2.53;;;16.30;99.90;;;;;;5096064;28;20215;-68
2022/05/03 10:47:53;;;;;;;7.77;2.53;;;16.20;99.90;;;;;;5097267;28;20163;-69
2022/05/03 10:50:31;;;;;;;7.53;2.90;;;16.20;99.90;;;;;;5097400;28;20533;-69
2022/05/03 10:52:58;;;;;;;8.67;2.90;;;16.20;99.90;;;;;;5095594;28;20182;-69
2022/05/03 10:55:37;;;;;;;11.43;3.37;;;16.20;99.90;;;;;;5096800;28;20305;-68
2022/05/03 10:58:25;;;;;;;7.13;2.60;;;16.10;99.90;;;;;;5095311;28;20178;-68
2022/05/03 11:01:09;;;;;;;5.27;2.60;;;16.10;99.90;;;;;;5096715;28;20633;-69
2022/05/03 11:04:02;;;;;;;10.10;3.00;;;16.00;99.90;;;;;;5096104;28;20187;-68
2022/05/03 11:06:32;;;;;;;12.00;3.93;;;16.00;99.90;;;;;;5096493;28;20254;-68
2022/05/03 11:11:42;;;;;;;10.23;4.13;;;16.00;99.90;;;;;;5096318;28;20608;-66
2022/05/03 11:14:19;;;;;;;7.57;3.50;;;15.90;99.90;;;;;;5096661;28;20163;-69
2022/05/03 11:17:08;;;;;;;10.17;3.70;;;15.90;99.90;;;;;;5096577;28;20223;-69
2022/05/03 11:19:49;;;;;;;9.43;3.40;;;15.80;99.90;;;;;;5093589;28;20248;-69
2022/05/03 11:22:27;;;;;;;8.40;3.30;;;15.70;99.90;;;;;;5093445;28;20187;-69
2022/05/03 11:24:57;;;;;;;14.33;4.13;;;15.70;99.90;;;;;;5096338;28;20238;-69
2022/05/03 11:27:26;;;;;;;6.63;2.80;;;15.70;99.90;;;;;;5096156;28;20167;-68
2022/05/03 11:30:05;;;;;;;6.60;2.73;;;15.70;99.90;;;;;;5096232;28;20167;-68
2022/05/03 11:32:41;;;;;;;7.57;2.93;;;15.70;99.90;;;;;;5094518;28;20549;-67
2022/05/03 11:35:20;;;;;;;9.03;2.77;;;15.70;99.90;;;;;;5095148;28;20545;-68
2022/05/03 11:37:55;;;;;;;4.67;3.13;;;15.70;99.90;;;;;;5094832;28;20288;-68
2022/05/03 11:40:26;;;;;;;4.50;2.97;;;15.60;99.90;;;;;;5095667;28;20270;-69
2022/05/03 11:42:54;;;;;;;6.93;3.20;;;15.50;99.90;;;;;;5095732;28;20167;-69
2022/05/03 11:45:22;;;;;;;6.97;3.60;;;15.40;99.90;;;;;;5095661;28;20202;-68
2022/05/03 11:47:51;;;;;;;9.13;4.13;;;15.40;99.90;;;;;;5095010;28;20179;-69
2022/05/03 11:56:09;;;;;;;7.17;3.80;;;15.30;99.90;;;;;;5095253;28;20234;-68
2022/05/03 11:58:39;;;;;;;12.57;3.67;;;15.20;99.90;;;;;;5095678;28;20535;-68
2022/05/03 12:01:16;;;;;;;11.83;4.23;;;15.20;99.90;;;;;;5095637;28;20182;-69
2022/05/03 12:03:53;;;;;;;7.77;3.57;;;15.20;99.90;;;;;;5094403;28;20179;-69
2022/05/03 12:06:21;;;;;;;9.87;3.57;;;15.10;99.90;;;;;;5095101;28;20203;-69
2022/05/03 12:08:52;;;;;;;10.90;4.10;;;15.10;99.90;;;;;;5095221;28;20171;-68
2022/05/03 12:11:24;;;;;;;14.70;4.00;;;15.10;99.90;;;;;;5092892;28;20176;-69
2022/05/03 12:13:52;;;;;;;9.60;3.60;;;15.00;99.90;;;;;;5095000;28;20274;-68
2022/05/03 12:16:27;;;;;;;8.73;3.17;;;15.00;99.90;;;;;;5094794;28;20209;-68
2022/05/03 12:18:57;;;;;;;7.93;3.77;;;14.90;99.90;;;;;;5094908;28;20289;-68
2022/05/03 12:21:30;;;;;;;10.40;3.97;;;14.90;99.90;;;;;;5095233;28;20167;-69
2022/05/03 12:24:07;;;;;;;6.97;3.43;;;14.90;99.90;;;;;;5094770;28;20182;-68
2022/05/03 12:26:38;;;;;;;13.33;3.97;;;14.90;99.90;;;;;;5094219;28;20329;-68
2022/05/03 12:29:07;;;;;;;9.40;3.80;;;14.80;99.90;;;;;;5095407;28;20175;-68
2022/05/03 12:31:38;;;;;;;8.27;3.27;;;14.80;99.90;;;;;;5095125;28;20182;-70
2022/05/03 12:34:14;;;;;;;7.83;3.03;;;14.80;99.90;;;;;;5094952;28;20168;-70
2022/05/03 12:36:44;;;;;;;5.63;2.97;;;14.70;99.90;;;;;;5094129;28;20716;-69
2022/05/03 12:39:18;;;;;;;6.07;2.80;;;14.70;99.90;;;;;;5094778;28;20177;-69
2022/05/03 12:42:00;;;;;;;7.60;3.00;;;14.70;99.90;;;;;;5094210;28;20215;-69
2022/05/03 12:44:28;;;;;;;9.70;3.40;;;14.70;99.90;;;;;;5094049;28;20581;-69
2022/05/03 12:47:04;;;;;;;7.03;3.10;;;14.70;99.90;;;;;;5093331;28;20191;-70
2022/05/03 12:49:33;;;;;;;6.87;3.03;;;14.70;99.90;;;;;;5074589;28;20545;-69
2022/05/03 12:52:02;;;;;;;6.83;2.90;;;14.70;99.90;;;;;;5080466;28;20183;-69
2022/05/03 12:54:29;;;;;;;6.20;2.90;;;14.70;99.90;;;;;;5094208;28;20260;-69
2022/05/03 12:59:43;;;;;;;12.23;3.10;;;14.60;99.90;;;;;;5094000;28;20189;-70
2022/05/03 13:02:11;;;;;;;10.87;3.30;;;14.60;99.90;;;;;;5093482;28;20176;-69
2022/05/03 13:04:39;;;;;;;7.70;3.00;;;14.60;99.90;;;;;;5092520;28;20185;-69
2022/05/03 13:07:06;;;;;;;8.07;3.60;;;14.50;99.90;;;;;;5091815;28;20280;-69
2022/05/03 13:09:34;;;;;;;7.03;3.07;;;14.50;99.90;;;;;;5093168;28;20175;-69
2022/05/03 13:12:02;;;;;;;7.10;3.20;;;14.50;99.90;;;;;;5093275;28;20652;-69
2022/05/03 13:14:31;;;;;;;9.67;3.93;;;14.40;99.90;;;;;;5093490;28;20175;-69
2022/05/03 13:16:59;;;;;;;6.00;3.47;;;14.40;99.90;;;;;;5093480;28;20179;-70
2022/05/03 13:19:30;;;;;;;7.73;3.27;;;14.30;99.90;;;;;;5092729;28;20188;-69
2022/05/03 13:21:58;;;;;;;6.17;3.23;;;14.30;99.90;;;;;;5093214;28;20174;-69
2022/05/03 13:24:26;;;;;;;8.40;3.97;;;14.30;99.90;;;;;;5092664;28;20196;-68
2022/05/03 13:26:54;;;;;;;7.87;3.73;;;14.30;99.90;;;;;;5073074;28;20237;-69
2022/05/03 13:29:22;;;;;;;12.93;3.37;;;14.30;99.90;;;;;;5089463;28;20243;-69
2022/05/03 13:31:51;;;;;;;9.83;4.20;;;14.30;99.90;;;;;;5093420;28;20655;-68
2022/05/03 13:34:18;;;;;;;8.77;4.10;;;14.20;99.90;;;;;;5093019;28;20194;-69
2022/05/03 13:42:18;;;;;;;12.13;4.43;;;14.10;99.90;;;;;;5093395;28;20189;-69
2022/05/03 13:44:45;;;;;;;6.40;3.67;;;14.10;99.90;;;;;;5092826;28;20297;-67
2022/05/03 13:47:14;;;;;;;6.53;3.60;;;14.10;99.90;;;;;;5092673;28;20186;-69
2022/05/03 13:49:44;;;;;;;9.27;3.67;;;14.10;99.90;;;;;;5092661;28;20210;-68
2022/05/03 13:52:12;;;;;;;7.27;3.67;;;14.10;99.90;;;;;;5092518;28;20197;-68
2022/05/03 13:54:41;;;;;;;6.37;3.90;;;14.00;99.90;;;;;;4953291;28;3965379;-68
2022/05/03 13:57:09;;;;;;;9.23;4.93;;;14.00;99.90;;;;;;5093155;28;20882;-69
2022/05/03 13:59:37;;;;;;;15.20;4.90;;;14.00;99.90;;;;;;5073080;28;20262;-69
2022/05/03 14:02:08;;;;;;;11.53;4.00;;;14.00;99.90;;;;;;5071925;28;20634;-68